Time;durP1;ratioP1;P1;durP2;ratioP2;P2;SDS_P1;SDS_P2;PMS_P1;PMS_P2;Temp;Humidity;BMP_temperature;BMP_pressure;BME280_temperature;BME280_humidity;BME280_pressure;Samples;Min_cycle;Max_cycle;Signal;HPM_P1;HPM_P2
2021/09/09 05:52:35;;;;;;;13.50;11.90;;;;;;;;;;10577887;27;20405;-84
2021/09/09 05:57:36;;;;;;;14.07;11.75;;;;;;;;;;10545334;28;20024;-86
2021/09/09 07:05:17;;;;;;;11.98;10.63;;;;;;;;;;10518792;28;20033;-86
2021/09/09 07:38:51;;;;;;;23.60;16.08;;;;;;;;;;10552101;28;20032;-88
2021/09/09 07:49:46;;;;;;;13.45;10.20;;;;;;;;;;10552395;28;20489;-88
2021/09/09 08:34:43;;;;;;;12.98;9.93;;;;;;;;;;10553958;28;20033;-87
2021/09/09 08:39:44;;;;;;;11.30;9.77;;;;;;;;;;10553091;28;20020;-87
2021/09/09 08:44:45;;;;;;;12.48;10.40;;;;;;;;;;10567581;28;20051;-88
2021/09/09 08:49:46;;;;;;;12.15;9.75;;;;;;;;;;10570712;28;20027;-87
2021/09/09 08:54:47;;;;;;;10.35;9.15;;;;;;;;;;10566810;28;20070;-86
2021/09/09 08:59:48;;;;;;;12.20;9.93;;;;;;;;;;10549800;28;20044;-86
2021/09/09 09:05:03;;;;;;;11.50;9.55;;;;;;;;;;10545454;28;20055;-87
2021/09/09 09:10:05;;;;;;;10.88;9.52;;;;;;;;;;10569377;28;20043;-86
2021/09/09 09:15:19;;;;;;;13.10;11.23;;;;;;;;;;10571115;28;20032;-89
2021/09/09 09:20:20;;;;;;;10.50;9.20;;;;;;;;;;10553437;28;20374;-91
2021/09/09 09:25:40;;;;;;;10.20;8.95;;;;;;;;;;10541480;28;20474;-89
2021/09/09 09:31:01;;;;;;;11.07;9.38;;;;;;;;;;10537510;28;20036;-88
2021/09/09 09:36:12;;;;;;;9.95;8.50;;;;;;;;;;10536342;28;20044;-86
2021/09/09 09:41:13;;;;;;;11.98;9.68;;;;;;;;;;10539460;28;20047;-88
2021/09/09 09:46:27;;;;;;;9.65;8.68;;;;;;;;;;10564133;28;20039;-88
2021/09/09 09:51:41;;;;;;;14.95;13.45;;;;;;;;;;10546364;28;20028;-86
2021/09/09 09:56:43;;;;;;;9.82;8.57;;;;;;;;;;10545885;28;20546;-86
2021/09/09 10:01:44;;;;;;;9.23;8.23;;;;;;;;;;10546877;28;20425;-85
2021/09/09 10:06:47;;;;;;;11.20;8.95;;;;;;;;;;10547976;28;20062;-85
2021/09/09 10:11:48;;;;;;;10.13;8.52;;;;;;;;;;10546289;28;20047;-83
2021/09/09 10:16:50;;;;;;;11.70;9.57;;;;;;;;;;10542962;28;20036;-82
2021/09/09 10:21:53;;;;;;;14.30;8.75;;;;;;;;;;10548162;28;20040;-83
2021/09/09 10:27:14;;;;;;;11.30;10.00;;;;;;;;;;10555388;28;20035;-83
2021/09/09 10:32:30;;;;;;;10.25;8.35;;;;;;;;;;10551794;28;20061;-84
2021/09/09 10:37:31;;;;;;;11.95;8.57;;;;;;;;;;10552805;28;20481;-84
2021/09/09 10:42:39;;;;;;;8.98;8.07;;;;;;;;;;10555802;28;20036;-83
2021/09/09 10:47:50;;;;;;;9.73;8.00;;;;;;;;;;10557549;28;20028;-83
2021/09/09 10:53:01;;;;;;;10.38;8.35;;;;;;;;;;10556448;28;20033;-83
2021/09/09 10:58:20;;;;;;;10.88;8.10;;;;;;;;;;10554461;28;20036;-84
2021/09/09 11:03:38;;;;;;;10.45;7.80;;;;;;;;;;10554810;28;20162;-84
2021/09/09 11:08:40;;;;;;;9.95;8.88;;;;;;;;;;10554903;28;20054;-85
2021/09/09 11:13:41;;;;;;;60.72;55.60;;;;;;;;;;10557065;28;20036;-84
2021/09/09 11:18:43;;;;;;;10.52;9.43;;;;;;;;;;10556610;28;20039;-83
2021/09/09 11:23:45;;;;;;;10.52;8.45;;;;;;;;;;10556417;28;20505;-83
2021/09/09 11:28:46;;;;;;;9.15;8.25;;;;;;;;;;10556818;28;20032;-82
2021/09/09 11:33:48;;;;;;;8.88;7.97;;;;;;;;;;10551198;28;20361;-83
2021/09/09 11:38:50;;;;;;;8.55;7.55;;;;;;;;;;10558402;28;20043;-82
2021/09/09 11:44:02;;;;;;;9.57;7.53;;;;;;;;;;10557613;28;20539;-84
2021/09/09 11:49:07;;;;;;;7.90;7.10;;;;;;;;;;10558013;28;20040;-83
2021/09/09 11:54:20;;;;;;;9.82;7.97;;;;;;;;;;10550615;28;20039;-83
2021/09/09 11:59:21;;;;;;;10.15;8.23;;;;;;;;;;10550229;28;20120;-85
2021/09/09 12:04:23;;;;;;;8.93;7.95;;;;;;;;;;10600463;22;20142;-86
2021/09/09 12:09:25;;;;;;;9.00;7.53;;;;;;;;;;10553227;28;20039;-86
2021/09/09 12:14:30;;;;;;;11.05;7.55;;;;;;;;;;10534115;28;20033;-85
2021/09/09 12:19:31;;;;;;;9.52;7.32;;;;;;;;;;10530000;28;20105;-85
2021/09/09 12:24:33;;;;;;;8.85;7.60;;;;;;;;;;10508052;28;20123;-85
2021/09/09 12:29:38;;;;;;;12.77;7.63;;;;;;;;;;10508399;28;20080;-87
2021/09/09 12:34:39;;;;;;;8.63;7.00;;;;;;;;;;10533770;28;19916;-86
2021/09/09 12:39:47;;;;;;;13.52;7.75;;;;;;;;;;10508627;28;20431;-85
2021/09/09 12:44:48;;;;;;;13.98;9.85;;;;;;;;;;10509217;28;20033;-84
2021/09/09 12:49:49;;;;;;;9.30;7.85;;;;;;;;;;10507588;28;20405;-86
2021/09/09 12:54:50;;;;;;;12.25;7.65;;;;;;;;;;10509474;28;20029;-87
2021/09/09 12:59:50;;;;;;;8.73;7.63;;;;;;;;;;10509057;28;20037;-86
2021/09/09 13:04:52;;;;;;;11.05;9.18;;;;;;;;;;10532984;28;20078;-87
2021/09/09 13:09:53;;;;;;;11.88;8.75;;;;;;;;;;10532745;28;20035;-86
2021/09/09 13:14:56;;;;;;;9.98;8.88;;;;;;;;;;10532439;28;20036;-84
2021/09/09 13:20:13;;;;;;;12.52;8.98;;;;;;;;;;10550304;28;20121;-84
2021/09/09 13:25:14;;;;;;;12.60;9.40;;;;;;;;;;10555812;28;20100;-86
2021/09/09 13:30:24;;;;;;;13.40;9.07;;;;;;;;;;10529017;28;20046;-86
2021/09/09 13:35:25;;;;;;;12.65;10.82;;;;;;;;;;10544012;28;20607;-85
2021/09/09 13:40:28;;;;;;;12.00;9.82;;;;;;;;;;10554934;28;20058;-86
2021/09/09 13:45:55;;;;;;;12.35;9.65;;;;;;;;;;10552655;28;20036;-86
2021/09/09 13:50:58;;;;;;;12.38;9.73;;;;;;;;;;10525467;28;20039;-84
2021/09/09 13:55:59;;;;;;;12.50;10.07;;;;;;;;;;10539202;28;20039;-85
2021/09/09 14:01:00;;;;;;;11.18;9.18;;;;;;;;;;10539152;28;20066;-85
2021/09/09 14:06:02;;;;;;;9.07;8.18;;;;;;;;;;10537679;28;20048;-85
2021/09/09 14:11:09;;;;;;;7.90;6.72;;;;;;;;;;10539855;28;20051;-85
2021/09/09 14:16:10;;;;;;;7.68;6.93;;;;;;;;;;10543344;28;20036;-85
2021/09/09 14:21:12;;;;;;;8.30;7.18;;;;;;;;;;10545803;28;20036;-84
2021/09/09 14:26:18;;;;;;;11.90;9.15;;;;;;;;;;10564990;28;20066;-85
2021/09/09 14:31:19;;;;;;;10.40;7.82;;;;;;;;;;10555097;28;20053;-84
2021/09/09 14:42:03;;;;;;;12.02;7.75;;;;;;;;;;10557396;28;20024;-86
2021/09/09 14:47:30;;;;;;;8.75;6.63;;;;;;;;;;10543224;28;20146;-87
2021/09/09 14:52:34;;;;;;;6.22;5.15;;;;;;;;;;10542181;28;20043;-86
2021/09/09 14:57:35;;;;;;;11.15;6.32;;;;;;;;;;10562696;28;20122;-85
2021/09/09 15:02:36;;;;;;;7.45;5.70;;;;;;;;;;10545397;28;20036;-85
2021/09/09 15:07:37;;;;;;;9.55;5.10;;;;;;;;;;10540899;28;20028;-86
2021/09/09 15:12:38;;;;;;;8.50;5.50;;;;;;;;;;10552227;28;20059;-84
2021/09/09 15:17:44;;;;;;;8.50;7.03;;;;;;;;;;10551018;28;20024;-85
2021/09/09 15:22:46;;;;;;;11.88;8.73;;;;;;;;;;10535067;28;20421;-84
2021/09/09 15:27:53;;;;;;;11.52;7.30;;;;;;;;;;10535096;28;20040;-84
2021/09/09 15:33:03;;;;;;;7.85;6.20;;;;;;;;;;10552476;28;20039;-85
2021/09/09 15:38:05;;;;;;;9.32;7.90;;;;;;;;;;10535982;28;20055;-85
2021/09/09 15:43:08;;;;;;;11.95;9.02;;;;;;;;;;10538502;28;20024;-85
2021/09/09 15:48:11;;;;;;;11.00;8.38;;;;;;;;;;10535774;28;20057;-84
2021/09/09 15:53:12;;;;;;;15.73;14.00;;;;;;;;;;10534344;28;20035;-85
2021/09/09 15:58:39;;;;;;;9.45;6.25;;;;;;;;;;10537536;28;20047;-85
2021/09/09 16:03:40;;;;;;;12.35;10.18;;;;;;;;;;10556312;28;20119;-83
2021/09/09 16:08:41;;;;;;;12.75;10.90;;;;;;;;;;10534591;28;20063;-84
2021/09/09 16:13:42;;;;;;;11.32;7.78;;;;;;;;;;10539636;28;20035;-83
2021/09/09 16:18:52;;;;;;;8.60;6.22;;;;;;;;;;10545062;28;20044;-87
2021/09/09 16:24:13;;;;;;;12.00;8.48;;;;;;;;;;10543317;28;20032;-88
2021/09/09 16:52:00;;;;;;;7.38;5.10;;;;;;;;;;10585411;28;20089;-89
2021/09/09 17:02:53;;;;;;;8.95;5.35;;;;;;;;;;10546832;28;20028;-88
2021/09/09 17:59:58;;;;;;;6.10;3.83;;;;;;;;;;10543798;28;20474;-93
2021/09/09 18:04:59;;;;;;;5.18;3.85;;;;;;;;;;10524135;28;20040;-90
2021/09/09 18:10:00;;;;;;;6.40;3.80;;;;;;;;;;10525379;28;20131;-90
2021/09/09 18:15:08;;;;;;;7.00;4.13;;;;;;;;;;10526050;28;20036;-90
2021/09/09 18:20:10;;;;;;;7.55;4.60;;;;;;;;;;10523338;28;20039;-90
2021/09/09 18:25:11;;;;;;;7.78;4.65;;;;;;;;;;10523984;28;20032;-89
2021/09/09 18:30:12;;;;;;;9.00;4.93;;;;;;;;;;10543703;28;20048;-89
2021/09/09 18:35:13;;;;;;;6.57;4.57;;;;;;;;;;10526811;28;20122;-88
2021/09/09 18:40:14;;;;;;;6.35;4.32;;;;;;;;;;10522437;28;20032;-88
2021/09/09 18:45:15;;;;;;;7.18;4.75;;;;;;;;;;10521239;28;20043;-88
2021/09/09 18:50:19;;;;;;;5.78;4.43;;;;;;;;;;10523131;28;20123;-90
2021/09/09 18:55:20;;;;;;;4.70;4.30;;;;;;;;;;10523019;28;20058;-91
2021/09/09 19:00:21;;;;;;;6.35;5.00;;;;;;;;;;10529340;28;20072;-90
2021/09/09 19:05:22;;;;;;;5.90;5.30;;;;;;;;;;10529227;28;20491;-90
2021/09/09 19:10:23;;;;;;;8.73;5.93;;;;;;;;;;10529805;28;20032;-90
2021/09/09 19:15:43;;;;;;;9.38;6.80;;;;;;;;;;10528590;28;20063;-88
2021/09/09 19:20:44;;;;;;;9.93;8.27;;;;;;;;;;10529286;28;20039;-91
2021/09/09 19:25:44;;;;;;;11.00;8.07;;;;;;;;;;10527962;28;20028;-89
2021/09/09 19:30:46;;;;;;;10.25;9.13;;;;;;;;;;10527865;28;20130;-89
2021/09/09 19:35:47;;;;;;;9.38;8.35;;;;;;;;;;10527706;28;20028;-88
2021/09/09 19:40:48;;;;;;;10.60;9.18;;;;;;;;;;10528127;28;20043;-88
2021/09/09 19:45:51;;;;;;;9.95;8.95;;;;;;;;;;10528989;28;20032;-88
2021/09/09 19:50:52;;;;;;;11.77;9.90;;;;;;;;;;10527534;28;20036;-88
2021/09/09 19:55:53;;;;;;;12.05;10.20;;;;;;;;;;10527136;28;20032;-88
2021/09/09 20:00:55;;;;;;;13.10;11.80;;;;;;;;;;10526786;28;20036;-88
2021/09/09 20:05:57;;;;;;;13.10;11.60;;;;;;;;;;10525915;28;20044;-87
2021/09/09 20:11:00;;;;;;;12.80;10.98;;;;;;;;;;10531160;28;20044;-86
2021/09/09 20:16:07;;;;;;;13.75;12.35;;;;;;;;;;10534270;28;20466;-87
